In Rescue
 
Open Full Screen Window  High Contrast Mode
May 20, 2019 2:01 PM CDT
Weather Information
Wind Direction
  ---
Wind Speed
  00 kt (0 mph)
Wind Gust
  00 kt (0 mph)
Altimeter
30.15 in
Visibility
10 SM
Temperature
13° C
55° F
Dewpoint
01° C
34° F
Humidity
44%
1hr Rain Fall
00.00 in.
24hr Rain Fall
00.01 in.
Sky Condition
Clear
VFR

METAR KLXL 201901Z AUTO 00000KT 10SM CLR 13/01 A3015 RMK AO2

FAA Disclaimer: The data displayed is for advisory purposes only and is not to be used for flight planning or operations.